Terminal Aerodrome Forecast
Issued by NWS Wilmington, OH

Home | Current Version | Previous Version | Text Only | Print | Product List | Glossary On
Versions: 1 2 3 4 5 6 7 8 9 10 11 12 13 14 15 16 17 18
812
FTUS41 KILN 300250 AAA
TAFCMH
TAF AMD
KCMH 300250Z 3003/3024 20005KT P6SM VCTS SCT040CB BKN090
      TEMPO 3003/3004 VRB14G21KT BKN040CB
     FM300400 24006KT P6SM SCT050 BKN100
     FM300500 28004KT P6SM SKC
     FM301500 33008KT P6SM SCT050
     FM302200 31005KT P6SM SKC=

USA.gov is the U.S. government's official web portal to all federal, state and local government web resources and services.